Terminal Aerodrome Forecast
Issued by NWS

Home | Current Version | Previous Version | Text Only | Print | Product List | Glossary Off
Versions: 1 2 3 4 5 6 7 8 9 10 11 12 13 14 15 16 17 18 19 20 21 22 23

000
FTUS43 KBIS 270100 AAA
TAFDIK
TAF AMD
KDIK 270131Z 2702/2724 11006KT P6SM FEW040 BKN100
     FM270700 16011KT P6SM OVC050
     FM270800 16011KT 1SM -SN OVC015
     FM271200 18011KT P6SM OVC019
     FM271700 29012KT P6SM BKN090
     FM272000 32015G23KT P6SM SCT100=

USA.gov is the U.S. government's official web portal to all federal, state and local government web resources and services.